createdAt,value
2019-02-15T00:00:19.933Z,16.90
2019-02-15T00:02:46.205Z,15.30
2019-02-15T00:05:12.698Z,15.63
2019-02-15T00:07:39.118Z,21.97
2019-02-15T00:10:05.860Z,15.30
2019-02-15T00:12:32.152Z,16.87
2019-02-15T00:14:58.623Z,18.27
2019-02-15T00:17:29.907Z,18.07
2019-02-15T00:19:58.091Z,17.40
2019-02-15T00:22:24.408Z,22.77
2019-02-15T00:24:50.837Z,16.60
2019-02-15T00:27:17.377Z,21.17
2019-02-15T00:29:43.880Z,16.90
2019-02-15T00:32:10.303Z,16.27
2019-02-15T00:34:36.692Z,15.57
2019-02-15T00:37:03.349Z,16.47
2019-02-15T00:39:29.748Z,17.03
2019-02-15T00:41:56.278Z,17.27
2019-02-15T00:44:22.770Z,13.20
2019-02-15T00:47:08.212Z,17.53
2019-02-15T00:49:36.510Z,18.93
2019-02-15T00:52:08.028Z,17.53
2019-02-15T00:54:36.172Z,14.80
2019-02-15T00:57:10.038Z,13.53
2019-02-15T00:59:38.369Z,15.73
2019-02-15T01:02:09.419Z,17.60
2019-02-15T01:04:43.554Z,16.87
2019-02-15T01:07:18.038Z,14.73
2019-02-15T01:09:46.249Z,21.87
2019-02-15T01:12:14.823Z,14.57
2019-02-15T01:14:41.303Z,16.97
2019-02-15T01:17:08.335Z,15.53
2019-02-15T01:19:34.764Z,16.20
2019-02-15T01:22:01.139Z,13.73
2019-02-15T01:24:27.759Z,12.17
2019-02-15T01:26:56.075Z,19.20
2019-02-15T01:29:24.497Z,15.30
2019-02-15T01:31:58.733Z,12.27
2019-02-15T01:34:36.355Z,14.70
2019-02-15T01:37:10.839Z,15.20
2019-02-15T01:39:45.117Z,17.20
2019-02-15T01:42:19.485Z,13.27
2019-02-15T01:44:50.822Z,14.47
2019-02-15T01:47:18.050Z,17.07
2019-02-15T01:49:44.498Z,15.73
2019-02-15T01:52:11.020Z,17.00
2019-02-15T01:54:37.345Z,15.97
2019-02-15T01:57:03.768Z,11.27
2019-02-15T01:59:30.198Z,15.30
2019-02-15T02:01:56.745Z,13.90
2019-02-15T02:04:23.090Z,13.27
2019-02-15T02:06:49.857Z,15.57
2019-02-15T02:09:17.055Z,13.57
2019-02-15T02:11:43.674Z,12.07
2019-02-15T02:14:10.208Z,13.23
2019-02-15T02:16:36.516Z,14.20
2019-02-15T02:19:02.993Z,15.47
2019-02-15T02:21:29.438Z,12.93
2019-02-15T02:23:55.730Z,11.17
2019-02-15T02:26:22.297Z,11.97
2019-02-15T02:28:48.670Z,12.60
2019-02-15T02:31:15.395Z,13.33
2019-02-15T02:33:41.920Z,12.63
2019-02-15T02:36:08.485Z,16.73
2019-02-15T02:38:34.948Z,13.10
2019-02-15T02:41:01.648Z,12.80
2019-02-15T02:43:28.041Z,11.53
2019-02-15T02:45:54.436Z,10.67
2019-02-15T02:48:20.907Z,13.90
2019-02-15T02:50:47.215Z,15.20
2019-02-15T02:53:13.619Z,13.37
2019-02-15T02:55:40.130Z,11.37
2019-02-15T02:58:06.538Z,14.17
2019-02-15T03:00:33.988Z,13.90
2019-02-15T03:03:00.544Z,10.40
2019-02-15T03:05:27.195Z,11.23
2019-02-15T03:07:53.712Z,13.07
2019-02-15T03:10:20.120Z,11.43
2019-02-15T03:12:46.458Z,14.17
2019-02-15T03:15:13.095Z,21.93
2019-02-15T03:17:39.359Z,58.43
2019-02-15T03:20:06.533Z,59.53
2019-02-15T03:22:33.066Z,17.57
2019-02-15T03:24:59.581Z,16.53
2019-02-15T03:27:25.876Z,20.73
2019-02-15T03:29:52.397Z,11.60
2019-02-15T03:32:18.810Z,10.33
2019-02-15T03:34:45.138Z,13.30
2019-02-15T03:37:16.435Z,13.57
2019-02-15T03:39:44.878Z,15.03
2019-02-15T03:42:12.665Z,12.90
2019-02-15T03:44:39.105Z,13.23
2019-02-15T03:47:05.603Z,12.27
2019-02-15T03:49:31.895Z,13.13
2019-02-15T03:51:58.159Z,11.00
2019-02-15T03:54:24.699Z,12.17
2019-02-15T03:56:51.320Z,13.50
2019-02-15T03:59:18.037Z,10.77
2019-02-15T04:01:44.713Z,16.53
2019-02-15T04:04:11.320Z,11.97
2019-02-15T04:06:37.729Z,13.60
2019-02-15T04:09:05.325Z,11.83
2019-02-15T04:11:31.690Z,11.37
2019-02-15T04:13:58.070Z,12.60
2019-02-15T04:16:24.504Z,12.37
2019-02-15T04:18:50.904Z,14.90
2019-02-15T04:21:17.335Z,12.57
2019-02-15T04:23:43.717Z,15.87
2019-02-15T04:26:10.031Z,10.83
2019-02-15T04:28:36.545Z,12.20
2019-02-15T04:31:03.144Z,17.07
2019-02-15T04:33:29.421Z,10.77
2019-02-15T04:35:55.808Z,11.63
2019-02-15T04:38:22.212Z,15.60
2019-02-15T04:40:48.764Z,12.17
2019-02-15T04:43:15.149Z,12.57
2019-02-15T04:45:41.683Z,17.57
2019-02-15T04:48:08.188Z,11.17
2019-02-15T04:50:34.554Z,10.57
2019-02-15T04:53:03.132Z,15.83
2019-02-15T04:55:29.316Z,13.23
2019-02-15T04:57:55.749Z,14.00
2019-02-15T05:00:22.135Z,14.13
2019-02-15T05:02:48.686Z,13.47
2019-02-15T05:05:15.175Z,14.73
2019-02-15T05:07:41.738Z,13.23
2019-02-15T05:10:08.338Z,13.33
2019-02-15T05:12:34.823Z,13.43
2019-02-15T05:15:01.115Z,13.40
2019-02-15T05:17:27.677Z,16.00
2019-02-15T05:19:54.165Z,15.33
2019-02-15T05:22:20.682Z,14.30
2019-02-15T05:24:47.184Z,13.27
2019-02-15T05:27:13.509Z,12.37
2019-02-15T05:29:39.940Z,10.40
2019-02-15T05:32:06.354Z,12.77
2019-02-15T05:34:32.849Z,11.23
2019-02-15T05:36:59.300Z,16.27
2019-02-15T05:39:25.635Z,16.37
2019-02-15T05:41:52.154Z,16.77
2019-02-15T05:44:18.704Z,11.83
2019-02-15T05:46:45.319Z,13.93
2019-02-15T05:49:11.955Z,11.40
2019-02-15T05:51:38.350Z,19.27
2019-02-15T05:54:04.930Z,14.70
2019-02-15T05:56:31.309Z,12.43
2019-02-15T05:58:57.845Z,14.23
2019-02-15T06:01:25.457Z,13.80
2019-02-15T06:03:52.025Z,12.43
2019-02-15T06:06:18.463Z,17.10
2019-02-15T06:08:44.861Z,13.47
2019-02-15T06:11:11.296Z,13.73
2019-02-15T06:13:37.635Z,14.73
2019-02-15T06:16:04.130Z,11.67
2019-02-15T06:18:30.567Z,16.80
2019-02-15T06:20:57.214Z,13.80
2019-02-15T06:23:23.824Z,13.80
2019-02-15T06:25:50.177Z,14.83
2019-02-15T06:28:16.704Z,15.43
2019-02-15T06:30:43.131Z,12.93
2019-02-15T06:33:09.614Z,14.23
2019-02-15T06:35:35.936Z,12.83
2019-02-15T06:38:02.441Z,17.33
2019-02-15T06:40:29.013Z,15.60
2019-02-15T06:42:55.519Z,14.23
2019-02-15T06:45:25.124Z,18.03
2019-02-15T06:47:50.335Z,16.97
2019-02-15T06:50:16.776Z,19.60
2019-02-15T06:52:43.087Z,11.67
2019-02-15T06:55:09.684Z,30.97
2019-02-15T06:57:36.122Z,103.03
2019-02-15T07:00:14.878Z,46.27
2019-02-15T07:02:43.280Z,19.57
2019-02-15T07:05:17.590Z,18.60
2019-02-15T07:07:44.086Z,18.07
2019-02-15T07:10:10.371Z,23.30
2019-02-15T07:12:36.905Z,18.13
2019-02-15T07:15:05.179Z,23.10
2019-02-15T07:17:31.731Z,23.80
2019-02-15T07:19:58.119Z,13.73
2019-02-15T07:22:24.464Z,17.13
2019-02-15T07:24:50.724Z,22.17
2019-02-15T07:27:17.265Z,18.90
2019-02-15T07:29:43.758Z,19.37
2019-02-15T07:32:10.268Z,25.30
2019-02-15T07:34:36.601Z,20.70
2019-02-15T07:37:03.383Z,17.77
2019-02-15T07:39:30.091Z,18.40
2019-02-15T07:41:56.414Z,17.50
2019-02-15T07:44:22.805Z,105.47
2019-02-15T07:46:49.140Z,128.83
2019-02-15T07:49:15.681Z,43.47
2019-02-15T07:51:41.971Z,22.53
2019-02-15T07:54:08.423Z,22.30
2019-02-15T07:56:34.849Z,21.93
2019-02-15T07:59:01.250Z,29.10
2019-02-15T08:01:27.566Z,22.67
2019-02-15T08:03:53.989Z,23.53
2019-02-15T08:06:20.430Z,21.00
2019-02-15T08:08:46.969Z,24.30
2019-02-15T08:11:13.393Z,15.93
2019-02-15T08:13:39.939Z,28.97
2019-02-15T08:16:06.334Z,110.57
2019-02-15T08:18:32.784Z,129.70
2019-02-15T08:20:59.111Z,45.97
2019-02-15T08:23:25.581Z,23.67
2019-02-15T08:25:51.960Z,24.03
2019-02-15T08:28:18.401Z,22.40
2019-02-15T08:30:44.948Z,19.77
2019-02-15T08:33:11.230Z,24.77
2019-02-15T08:35:37.745Z,24.23
2019-02-15T08:38:04.346Z,19.40
2019-02-15T08:40:30.869Z,17.33
2019-02-15T08:42:57.395Z,16.60
2019-02-15T08:45:23.875Z,26.33
2019-02-15T08:47:50.130Z,20.93
2019-02-15T08:50:16.465Z,18.47
2019-02-15T08:52:42.729Z,14.33
2019-02-15T08:55:10.655Z,19.17
2019-02-15T08:57:37.240Z,13.63
2019-02-15T09:00:10.610Z,17.33
2019-02-15T09:02:37.130Z,23.80
2019-02-15T09:05:06.433Z,12.87
2019-02-15T09:07:32.896Z,16.50
2019-02-15T09:09:59.415Z,20.80
2019-02-15T09:12:25.909Z,17.20
2019-02-15T09:14:52.432Z,21.20
2019-02-15T09:17:18.862Z,18.93
2019-02-15T09:19:45.369Z,13.87
2019-02-15T09:22:11.891Z,17.13
2019-02-15T09:24:38.395Z,17.03
2019-02-15T09:27:06.824Z,12.93
2019-02-15T09:29:33.107Z,16.03
2019-02-15T09:31:59.656Z,17.03
2019-02-15T09:34:26.153Z,18.37
2019-02-15T09:36:52.884Z,12.70
2019-02-15T09:39:19.304Z,13.60
2019-02-15T09:41:45.922Z,17.17
2019-02-15T09:44:12.341Z,14.30
2019-02-15T09:46:38.771Z,27.17
2019-02-15T09:49:05.302Z,20.97
2019-02-15T09:51:31.746Z,16.73
2019-02-15T09:53:58.246Z,11.40
2019-02-15T09:56:24.779Z,20.27
2019-02-15T09:58:51.320Z,13.10
2019-02-15T10:01:17.744Z,20.50
2019-02-15T10:03:44.094Z,17.50
2019-02-15T10:06:10.530Z,14.60
2019-02-15T10:08:36.973Z,10.63
2019-02-15T10:11:03.563Z,13.00
2019-02-15T10:13:30.029Z,12.10
2019-02-15T10:15:56.549Z,15.57
2019-02-15T10:18:23.119Z,8.13
2019-02-15T10:20:49.568Z,8.90
2019-02-15T10:23:16.072Z,7.67
2019-02-15T10:25:42.574Z,9.97
2019-02-15T10:28:08.911Z,7.50
2019-02-15T10:30:35.230Z,5.20
2019-02-15T10:33:01.781Z,3.00
2019-02-15T10:35:28.245Z,2.73
2019-02-15T10:37:54.956Z,4.20
2019-02-15T10:40:21.486Z,2.07
2019-02-15T10:42:47.895Z,1.57
2019-02-15T10:45:14.821Z,1.10
2019-02-15T10:47:41.372Z,2.60
2019-02-15T10:50:09.818Z,4.30
2019-02-15T10:52:36.165Z,2.67
2019-02-15T10:55:05.022Z,2.03
2019-02-15T10:57:31.455Z,1.63
2019-02-15T10:59:57.770Z,1.27
2019-02-15T11:02:24.180Z,1.80
2019-02-15T11:04:50.810Z,1.60
2019-02-15T11:07:17.246Z,1.50
2019-02-15T11:09:44.121Z,3.87
2019-02-15T11:12:10.575Z,1.40
2019-02-15T11:14:37.139Z,2.53
2019-02-15T11:17:03.667Z,2.17
2019-02-15T11:19:30.165Z,1.53
2019-02-15T11:21:56.764Z,1.20
2019-02-15T11:24:23.320Z,3.30
2019-02-15T11:26:49.739Z,1.17
2019-02-15T11:29:16.196Z,1.50
2019-02-15T11:31:42.985Z,2.60
2019-02-15T11:34:09.632Z,1.97
2019-02-15T11:36:36.123Z,0.87
2019-02-15T11:39:04.180Z,1.60
2019-02-15T11:41:30.659Z,1.07
2019-02-15T11:43:56.974Z,2.47
2019-02-15T11:46:23.510Z,1.90
2019-02-15T11:48:50.097Z,1.07
2019-02-15T11:51:16.600Z,1.30
2019-02-15T11:53:43.013Z,4.93
2019-02-15T11:56:09.619Z,1.13
2019-02-15T11:58:36.209Z,2.43
2019-02-15T12:01:04.528Z,3.97
2019-02-15T12:03:30.850Z,1.30
2019-02-15T12:05:57.184Z,0.87
2019-02-15T12:08:23.677Z,1.77
2019-02-15T12:10:50.002Z,2.07
2019-02-15T12:13:16.819Z,2.03
2019-02-15T12:15:43.335Z,1.20
2019-02-15T12:18:09.792Z,4.10
2019-02-15T12:20:36.505Z,1.10
2019-02-15T12:23:03.141Z,1.80
2019-02-15T12:25:29.783Z,1.00
2019-02-15T12:27:56.414Z,1.10
2019-02-15T12:30:23.010Z,1.30
2019-02-15T12:32:49.657Z,1.83
2019-02-15T12:35:16.068Z,1.83
2019-02-15T12:37:42.690Z,0.90
2019-02-15T12:40:10.777Z,1.87
2019-02-15T12:42:37.527Z,1.87
2019-02-15T12:45:12.391Z,3.87
2019-02-15T12:47:39.118Z,1.33
2019-02-15T12:50:17.898Z,1.43
2019-02-15T12:52:44.347Z,1.00
2019-02-15T12:55:11.240Z,1.67
2019-02-15T12:57:38.011Z,3.27
2019-02-15T13:00:12.331Z,1.90
2019-02-15T13:02:38.916Z,1.20
2019-02-15T13:05:08.236Z,1.20
2019-02-15T13:07:34.740Z,1.10
2019-02-15T13:10:01.316Z,1.07
2019-02-15T13:12:27.795Z,1.53
2019-02-15T13:14:54.233Z,1.77
2019-02-15T13:17:24.754Z,1.73
2019-02-15T13:19:49.405Z,3.40
2019-02-15T13:22:16.151Z,2.70
2019-02-15T13:24:43.285Z,3.03
2019-02-15T13:27:09.937Z,1.90
2019-02-15T13:29:36.499Z,2.37
2019-02-15T13:32:03.325Z,1.97
2019-02-15T13:34:29.907Z,2.70
2019-02-15T13:36:56.955Z,3.57
2019-02-15T13:39:23.683Z,3.57
2019-02-15T13:41:50.230Z,3.60
2019-02-15T13:44:17.870Z,1.40
2019-02-15T13:46:44.534Z,1.43
2019-02-15T13:49:12.946Z,1.47
2019-02-15T13:51:39.680Z,2.57
2019-02-15T13:54:06.293Z,4.83
2019-02-15T13:56:33.067Z,3.13
2019-02-15T13:58:59.673Z,1.57
2019-02-15T14:01:26.391Z,1.20
2019-02-15T14:03:52.773Z,1.73
2019-02-15T14:06:19.361Z,1.43
2019-02-15T14:08:45.992Z,2.13
2019-02-15T14:11:12.761Z,1.77
2019-02-15T14:13:39.298Z,1.20
2019-02-15T14:16:05.798Z,3.63
2019-02-15T14:18:32.308Z,1.33
2019-02-15T14:20:58.871Z,1.30
2019-02-15T14:23:25.416Z,3.00
2019-02-15T14:25:51.926Z,1.97
2019-02-15T14:28:18.606Z,1.20
2019-02-15T14:30:45.381Z,1.23
2019-02-15T14:33:12.318Z,2.03
2019-02-15T14:35:38.997Z,1.93
2019-02-15T14:38:05.736Z,1.63
2019-02-15T14:40:32.370Z,1.40
2019-02-15T14:42:59.161Z,3.23
2019-02-15T14:45:25.762Z,1.10
2019-02-15T14:47:54.995Z,2.43
2019-02-15T14:50:20.755Z,1.97
2019-02-15T14:52:47.193Z,2.07
2019-02-15T14:55:13.846Z,1.80
2019-02-15T14:57:41.602Z,2.80
2019-02-15T15:00:11.284Z,1.97
2019-02-15T15:02:37.902Z,1.30
2019-02-15T15:05:05.844Z,2.30
2019-02-15T15:07:32.441Z,2.63
2019-02-15T15:09:58.856Z,1.30
2019-02-15T15:12:25.379Z,1.40
2019-02-15T15:14:51.869Z,3.80
2019-02-15T15:17:18.431Z,3.13
2019-02-15T15:19:45.127Z,1.10
2019-02-15T15:22:12.093Z,1.43
2019-02-15T15:24:38.671Z,1.43
2019-02-15T15:27:04.984Z,2.87
2019-02-15T15:29:31.581Z,1.20
2019-02-15T15:31:59.630Z,2.30
2019-02-15T15:34:26.295Z,3.37
2019-02-15T15:36:52.845Z,6.13
2019-02-15T15:39:19.396Z,5.13
2019-02-15T15:41:46.127Z,2.60
2019-02-15T15:44:12.595Z,2.47
2019-02-15T15:46:39.431Z,3.20
2019-02-15T15:49:05.981Z,1.33
2019-02-15T15:51:32.528Z,1.97
2019-02-15T15:53:59.059Z,1.47
2019-02-15T15:56:25.511Z,1.73
2019-02-15T15:58:52.069Z,3.00
2019-02-15T16:01:18.641Z,1.60
2019-02-15T16:03:45.222Z,1.70
2019-02-15T16:06:12.232Z,2.07
2019-02-15T16:08:38.750Z,2.03
2019-02-15T16:11:05.321Z,2.53
2019-02-15T16:13:32.098Z,3.10
2019-02-15T16:15:58.877Z,5.50
2019-02-15T16:18:32.941Z,3.10
2019-02-15T16:20:53.854Z,3.43
2019-02-15T16:23:20.436Z,3.00
2019-02-15T16:25:47.056Z,1.87
2019-02-15T16:28:13.857Z,1.83
2019-02-15T16:30:40.631Z,1.70
2019-02-15T16:33:07.175Z,1.70
2019-02-15T16:35:33.807Z,2.23
2019-02-15T16:38:00.491Z,6.83
2019-02-15T16:40:27.003Z,4.10
2019-02-15T16:42:53.819Z,2.53
2019-02-15T16:45:20.192Z,3.00
2019-02-15T16:47:46.915Z,1.83
2019-02-15T16:50:13.697Z,2.40
2019-02-15T16:52:40.373Z,2.10
2019-02-15T16:55:12.707Z,2.00
2019-02-15T16:57:37.364Z,2.97
2019-02-15T17:00:07.736Z,3.60
2019-02-15T17:02:34.251Z,3.10
2019-02-15T17:05:00.964Z,5.23
2019-02-15T17:07:27.743Z,3.70
2019-02-15T17:09:54.258Z,3.97
2019-02-15T17:12:21.067Z,3.27
2019-02-15T17:14:47.607Z,2.30
2019-02-15T17:17:14.089Z,3.13
2019-02-15T17:19:40.702Z,3.63
2019-02-15T17:22:07.342Z,5.27
2019-02-15T17:24:33.850Z,4.70
2019-02-15T17:27:00.296Z,6.33
2019-02-15T17:29:26.899Z,3.87
2019-02-15T17:31:54.008Z,4.93
2019-02-15T17:34:20.831Z,10.00
2019-02-15T17:36:47.557Z,4.90
2019-02-15T17:39:15.742Z,5.03
2019-02-15T17:41:51.791Z,6.83
2019-02-15T17:44:23.227Z,4.03
2019-02-15T17:46:50.072Z,3.97
2019-02-15T17:49:16.703Z,4.70
2019-02-15T17:51:43.257Z,8.97
2019-02-15T17:54:09.908Z,4.50
2019-02-15T17:56:36.921Z,2.30
2019-02-15T17:59:05.564Z,3.73
2019-02-15T18:01:33.449Z,10.90
2019-02-15T18:04:00.019Z,4.43
2019-02-15T18:06:26.833Z,4.27
2019-02-15T18:08:53.446Z,5.80
2019-02-15T18:11:20.099Z,7.47
2019-02-15T18:13:46.606Z,8.47
2019-02-15T18:16:13.416Z,5.17
2019-02-15T18:18:40.137Z,3.87
2019-02-15T18:21:06.833Z,4.60
2019-02-15T18:23:33.657Z,6.23
2019-02-15T18:26:00.407Z,7.83
2019-02-15T18:28:27.192Z,7.17
2019-02-15T18:30:53.821Z,4.03
2019-02-15T18:33:20.551Z,3.77
2019-02-15T18:35:47.311Z,4.07
2019-02-15T18:38:14.151Z,3.33
2019-02-15T18:40:41.000Z,7.30
2019-02-15T18:43:07.656Z,4.80
2019-02-15T18:45:34.509Z,3.27
2019-02-15T18:48:01.240Z,3.60
2019-02-15T18:50:28.036Z,2.67
2019-02-15T18:52:54.805Z,3.23
2019-02-15T18:55:21.387Z,3.00
2019-02-15T18:57:48.267Z,4.27
2019-02-15T19:00:16.591Z,2.40
2019-02-15T19:02:47.014Z,6.03
2019-02-15T19:05:13.871Z,3.23
2019-02-15T19:07:40.689Z,4.93
2019-02-15T19:10:11.548Z,6.30
2019-02-15T19:12:38.435Z,7.17
2019-02-15T19:15:09.428Z,3.83
2019-02-15T19:17:36.364Z,5.03
2019-02-15T19:20:07.633Z,4.70
2019-02-15T19:22:34.448Z,8.13
2019-02-15T19:25:01.254Z,5.27
2019-02-15T19:27:29.111Z,5.00
2019-02-15T19:29:56.418Z,6.40
2019-02-15T19:32:23.202Z,6.17
2019-02-15T19:34:49.952Z,9.13
2019-02-15T19:37:16.763Z,5.00
2019-02-15T19:39:43.573Z,8.03
2019-02-15T19:42:11.127Z,18.60
2019-02-15T19:44:38.015Z,15.17
2019-02-15T19:47:05.033Z,7.43
2019-02-15T19:49:38.630Z,5.37
2019-02-15T19:52:00.837Z,6.83
2019-02-15T19:54:27.637Z,6.63
2019-02-15T19:56:54.549Z,17.53
2019-02-15T19:59:21.503Z,10.53
2019-02-15T20:01:48.207Z,6.80
2019-02-15T20:04:15.151Z,4.60
2019-02-15T20:06:42.117Z,4.60
2019-02-15T20:09:09.061Z,5.63
2019-02-15T20:11:35.987Z,4.03
2019-02-15T20:14:02.749Z,4.73
2019-02-15T20:16:29.718Z,4.37
2019-02-15T20:18:56.450Z,3.87
2019-02-15T20:21:23.351Z,4.57
2019-02-15T20:23:50.118Z,4.33
2019-02-15T20:26:16.592Z,4.97
2019-02-15T20:28:43.551Z,4.63
2019-02-15T20:31:10.450Z,5.27
2019-02-15T20:33:37.199Z,4.53
2019-02-15T20:36:03.873Z,4.63
2019-02-15T20:38:30.819Z,23.47
2019-02-15T20:40:57.697Z,25.93
2019-02-15T20:43:24.469Z,11.53
2019-02-15T20:45:51.011Z,10.03
2019-02-15T20:48:17.711Z,4.40
2019-02-15T20:50:44.339Z,6.77
2019-02-15T20:53:11.439Z,4.50
2019-02-15T20:55:38.223Z,3.43
2019-02-15T20:58:04.944Z,4.07
2019-02-15T21:00:33.611Z,3.93
2019-02-15T21:03:00.415Z,5.37
2019-02-15T21:05:27.744Z,3.73
2019-02-15T21:07:54.487Z,4.53
2019-02-15T21:10:21.382Z,4.80
2019-02-15T21:12:48.240Z,4.37
2019-02-15T21:15:15.065Z,3.57
2019-02-15T21:17:41.957Z,4.00
2019-02-15T21:20:15.554Z,4.07
2019-02-15T21:22:42.294Z,6.10
2019-02-15T21:25:12.597Z,6.20
2019-02-15T21:27:39.427Z,5.00
2019-02-15T21:30:17.246Z,6.53
2019-02-15T21:32:44.083Z,4.47
2019-02-15T21:35:10.926Z,4.03
2019-02-15T21:37:37.597Z,5.30
2019-02-15T21:40:09.342Z,3.63
2019-02-15T21:42:35.913Z,5.67
2019-02-15T21:45:03.151Z,5.20
2019-02-15T21:47:29.622Z,7.33
2019-02-15T21:49:56.369Z,3.37
2019-02-15T21:52:22.960Z,6.93
2019-02-15T21:54:49.395Z,4.57
2019-02-15T21:57:16.112Z,4.80
2019-02-15T21:59:42.964Z,5.97
2019-02-15T22:02:09.644Z,4.73
2019-02-15T22:04:36.250Z,6.20
2019-02-15T22:07:02.847Z,3.80
2019-02-15T22:09:29.367Z,4.27
2019-02-15T22:11:55.962Z,5.23
2019-02-15T22:14:22.416Z,5.73
2019-02-15T22:16:49.007Z,4.20
2019-02-15T22:19:15.628Z,6.07
2019-02-15T22:21:42.117Z,5.63
2019-02-15T22:24:08.638Z,3.97
2019-02-15T22:26:35.138Z,7.57
2019-02-15T22:29:01.826Z,4.77
2019-02-15T22:31:28.462Z,6.53
2019-02-15T22:33:55.117Z,4.50
2019-02-15T22:36:21.809Z,5.03
2019-02-15T22:38:48.347Z,6.53
2019-02-15T22:41:14.882Z,4.23
2019-02-15T22:43:42.107Z,5.07
2019-02-15T22:46:08.673Z,11.50
2019-02-15T22:48:35.181Z,7.93
2019-02-15T22:51:01.534Z,3.90
2019-02-15T22:53:28.308Z,4.50
2019-02-15T22:55:54.893Z,5.37
2019-02-15T22:58:21.677Z,6.30
2019-02-15T23:00:59.784Z,5.23
2019-02-15T23:03:27.283Z,6.10
2019-02-15T23:05:53.962Z,6.20
2019-02-15T23:08:20.686Z,5.40
2019-02-15T23:10:47.166Z,5.47
2019-02-15T23:13:13.956Z,5.37
2019-02-15T23:15:40.496Z,5.70
2019-02-15T23:18:07.250Z,5.53
2019-02-15T23:20:33.908Z,5.73
2019-02-15T23:23:00.523Z,8.10
2019-02-15T23:25:27.054Z,5.20
2019-02-15T23:27:53.753Z,6.53
2019-02-15T23:30:20.309Z,7.83
2019-02-15T23:32:46.983Z,7.33
2019-02-15T23:35:13.597Z,7.93
2019-02-15T23:37:40.284Z,6.30
2019-02-15T23:40:06.818Z,9.43
2019-02-15T23:42:33.342Z,4.93
2019-02-15T23:44:59.752Z,6.23
2019-02-15T23:47:26.185Z,6.23
2019-02-15T23:49:52.758Z,6.13
2019-02-15T23:52:19.266Z,6.97
2019-02-15T23:54:45.701Z,8.30
2019-02-15T23:57:12.191Z,8.30
2019-02-15T23:59:38.760Z,6.10
